Crosby Wave — WDH3388 — position and weather

sailwx.info

Track history (hours):
 
Tides and Currents Weather Stations Pressure Air Temp Water Temp Dewpoint Dewpoint Depression Visibility Wind Speed Wind Dir Waves Ship Positions

Crosby Wave

Owner: Crosby Marine Transportation, LLC, Galliano, LA. More information available from US FCC via Universal Licensing System and Coast Guard Vessel Documentation Center.

Last reported at 2018-Aug-15 23:06 UTC. Time now 2018-Aug-16 08:44 UTC.
Position N 36°55' W 076°20'.

; draft 3.8 m.

Type: Towing. MMSI: 367126540.

Date/timePositionNaut miles runAvg speedWind from/ knotsBaromVisibWave heightAir tempDewpointWater temp
2018-Aug-15 23:06N 36°55' W 076°20'1 8.9
2018-Aug-15 22:58N 36°53' W 076°20'4 7.8
2018-Aug-15 22:30N 36°50' W 076°18'3 6.7
2018-Aug-15 22:00N 36°47' W 076°18'1 2.3
2018-Aug-15 21:30N 36°46' W 076°18'0 0.0
2018-Aug-15 21:00N 36°46' W 076°18'0 0.0
2018-Aug-15 20:30N 36°46' W 076°18'1 1.2
2018-Aug-15 20:00N 36°47' W 076°18'2 4.6
2018-Aug-15 19:30N 36°49' W 076°17'2 3.3
2018-Aug-15 19:00N 36°50' W 076°16'0 0.0
2018-Aug-15 18:30N 36°50' W 076°16'0 0.0
2018-Aug-15 18:00N 36°50' W 076°16'0 0.0
2018-Aug-15 17:30N 36°50' W 076°16'0 0.0
2018-Aug-15 17:00N 36°50' W 076°16'0 0.0
2018-Aug-15 16:30N 36°50' W 076°16'0 0.0
2018-Aug-15 16:00N 36°50' W 076°16'0 0.0
2018-Aug-15 15:30N 36°50' W 076°16'0 0.0
2018-Aug-15 15:00N 36°50' W 076°16'0 0.0
2018-Aug-15 14:30N 36°50' W 076°16'0 0.0
2018-Aug-15 14:00N 36°50' W 076°16'0 0.0
2018-Aug-15 13:30N 36°50' W 076°16'0 0.0
2018-Aug-15 13:00N 36°50' W 076°16'0 0.0
2018-Aug-15 12:30N 36°50' W 076°16'0 0.0
2018-Aug-15 12:00N 36°50' W 076°16'0 0.1
2018-Aug-15 11:30N 36°50' W 076°16'0 0.1
2018-Aug-15 11:00N 36°50' W 076°16'0 0.0
2018-Aug-15 10:31N 36°50' W 076°16'0 0.0
2018-Aug-15 10:00N 36°50' W 076°16'0 0.0
2018-Aug-15 09:30N 36°50' W 076°16'0 0.0
2018-Aug-15 09:00N 36°50' W 076°16'0 0.0
2018-Aug-15 08:30N 36°50' W 076°16'0 0.0
2018-Aug-15 08:00N 36°50' W 076°16'0 0.0
2018-Aug-15 07:31N 36°50' W 076°16'0 0.0
2018-Aug-15 07:00N 36°50' W 076°16'0 0.0
2018-Aug-15 06:30N 36°50' W 076°16'0 0.0
2018-Aug-15 06:00N 36°50' W 076°16'0 0.0
2018-Aug-15 05:31N 36°50' W 076°16'0 0.0
2018-Aug-15 05:00N 36°50' W 076°16'0 0.0
2018-Aug-15 04:30N 36°50' W 076°16'0 0.0
2018-Aug-15 04:00N 36°50' W 076°16'0 0.0
2018-Aug-15 03:31N 36°50' W 076°16'0 0.0
2018-Aug-15 03:00N 36°50' W 076°16'0 0.0
2018-Aug-15 02:30N 36°50' W 076°16'0 0.0
2018-Aug-15 02:00N 36°50' W 076°16'0 0.0
2018-Aug-15 01:30N 36°50' W 076°16'0 0.0
2018-Aug-15 01:00N 36°50' W 076°16'0 0.0
2018-Aug-15 00:30N 36°50' W 076°16'0 0.0
2018-Aug-15 00:00N 36°50' W 076°16'0 0.0
2018-Aug-14 23:30N 36°50' W 076°16'0 0.0
2018-Aug-14 23:00N 36°50' W 076°16'0 0.0
2018-Aug-14 22:31N 36°50' W 076°16'0 0.0
2018-Aug-14 22:00N 36°50' W 076°16'0 0.0
2018-Aug-14 21:31N 36°50' W 076°16'0 0.0
2018-Aug-14 21:00N 36°50' W 076°16'0 0.0
2018-Aug-14 20:30N 36°50' W 076°16'0 0.0
2018-Aug-14 20:00N 36°50' W 076°16'0 0.0
2018-Aug-14 19:30N 36°50' W 076°16'0 0.0
2018-Aug-14 19:00N 36°50' W 076°16'0 0.0
2018-Aug-14 18:30N 36°50' W 076°16'0 0.0
2018-Aug-14 17:59N 36°50' W 076°16'0 0.0
2018-Aug-14 17:30N 36°50' W 076°16'0 0.0
2018-Aug-14 17:00N 36°50' W 076°16'0 0.0
2018-Aug-14 16:30N 36°50' W 076°16'0 0.0
2018-Aug-14 16:00N 36°50' W 076°16'0 0.0
2018-Aug-14 15:30N 36°50' W 076°16'0 0.0
2018-Aug-14 15:00N 36°50' W 076°16'0 0.0
2018-Aug-14 14:31N 36°50' W 076°16'0 0.0
2018-Aug-14 14:00N 36°50' W 076°16'0 0.0
2018-Aug-14 13:30N 36°50' W 076°16'0 0.0
2018-Aug-14 13:00N 36°50' W 076°16'0 0.0
2018-Aug-14 12:30N 36°50' W 076°16'0 0.0
2018-Aug-14 12:00N 36°50' W 076°16'0 0.0
2018-Aug-14 11:30N 36°50' W 076°16'0 0.0
2018-Aug-14 11:00N 36°50' W 076°16'0 0.0
2018-Aug-14 10:30N 36°50' W 076°16'0 0.0
2018-Aug-14 10:00N 36°50' W 076°16'0 0.0
2018-Aug-14 09:30N 36°50' W 076°16'0 0.0
2018-Aug-14 09:00N 36°50' W 076°16'0 0.0
2018-Aug-14 08:30N 36°50' W 076°16'0 0.0
2018-Aug-14 08:00N 36°50' W 076°16'0 0.0
2018-Aug-14 07:30N 36°50' W 076°16'0 0.0
2018-Aug-14 07:00N 36°50' W 076°16'0 0.0
2018-Aug-14 06:30N 36°50' W 076°16'0 0.0
2018-Aug-14 05:59N 36°50' W 076°16'0 0.0
2018-Aug-14 05:30N 36°50' W 076°16'0 0.0
2018-Aug-14 05:00N 36°50' W 076°16'0 0.0
2018-Aug-14 04:30N 36°50' W 076°16'0 0.0
2018-Aug-14 04:00N 36°50' W 076°16'0 0.0
2018-Aug-14 03:30N 36°50' W 076°16'0 0.0
2018-Aug-14 03:00N 36°50' W 076°16'0 0.0
2018-Aug-14 02:30N 36°50' W 076°16'0 0.0
2018-Aug-14 02:00N 36°50' W 076°16'0 0.0
2018-Aug-14 01:31N 36°50' W 076°16'0 0.0
2018-Aug-14 01:00N 36°50' W 076°16'0 0.0
2018-Aug-14 00:30N 36°50' W 076°16'0 0.0
2018-Aug-14 00:00N 36°50' W 076°16'0 0.0
2018-Aug-13 23:30N 36°50' W 076°16'0 0.0
2018-Aug-13 23:00N 36°50' W 076°16'0 0.0
2018-Aug-13 22:30N 36°50' W 076°16'0 0.0
2018-Aug-13 22:00N 36°50' W 076°16'0 0.0
2018-Aug-13 21:30N 36°50' W 076°16'0 0.0
2018-Aug-13 21:00N 36°50' W 076°16'0 0.0
2018-Aug-13 20:30N 36°50' W 076°16'0 0.0
2018-Aug-13 20:00N 36°50' W 076°16'0 0.0
2018-Aug-13 19:30N 36°50' W 076°16'0 0.0
2018-Aug-13 19:00N 36°50' W 076°16'0 0.0
2018-Aug-13 18:30N 36°50' W 076°16'0 0.0
2018-Aug-13 18:00N 36°50' W 076°16'0 0.0
2018-Aug-13 17:30N 36°50' W 076°16'0 0.0
2018-Aug-13 17:00N 36°50' W 076°16'0 0.0
2018-Aug-13 16:30N 36°50' W 076°16'0 0.0
2018-Aug-13 16:00N 36°50' W 076°16'0 0.0
2018-Aug-13 15:30N 36°50' W 076°16'0 0.0
2018-Aug-13 15:01N 36°50' W 076°16'0 0.0
2018-Aug-13 14:30N 36°50' W 076°16'0 0.0
2018-Aug-13 14:00N 36°50' W 076°16'0 0.0
2018-Aug-13 13:30N 36°50' W 076°16'0 0.0
2018-Aug-13 13:00N 36°50' W 076°16'0 0.0
2018-Aug-13 12:30N 36°50' W 076°16'0 0.0
2018-Aug-13 12:00N 36°50' W 076°16'0 0.0
2018-Aug-13 11:30N 36°50' W 076°16'0 0.0
2018-Aug-13 11:00N 36°50' W 076°16'0 0.0
2018-Aug-13 10:30N 36°50' W 076°16'0 0.0
2018-Aug-13 10:00N 36°50' W 076°16'0 0.0
2018-Aug-13 09:30N 36°50' W 076°16'0 0.0
2018-Aug-13 09:00N 36°50' W 076°16'0 0.0
2018-Aug-13 08:31N 36°50' W 076°16'0 0.0
2018-Aug-13 08:00N 36°50' W 076°16'0 0.0
2018-Aug-13 07:30N 36°50' W 076°16'0 0.0
2018-Aug-13 07:00N 36°50' W 076°16'0 0.0
2018-Aug-13 06:31N 36°50' W 076°16'0 0.0
2018-Aug-13 06:00N 36°50' W 076°16'0 0.0
2018-Aug-13 05:30N 36°50' W 076°16'0 0.0
2018-Aug-13 05:00N 36°50' W 076°16'0 0.0
2018-Aug-13 04:30N 36°50' W 076°16'0 0.0
2018-Aug-13 04:00N 36°50' W 076°16'0 0.0
2018-Aug-13 03:30N 36°50' W 076°16'0 0.0
2018-Aug-13 03:00N 36°50' W 076°16'0 0.0
2018-Aug-13 02:30N 36°50' W 076°16'0 0.0
2018-Aug-13 02:00N 36°50' W 076°16'0 0.0
2018-Aug-13 01:31N 36°50' W 076°16'0 0.0
2018-Aug-13 01:00N 36°50' W 076°16'0 0.0
2018-Aug-13 00:30N 36°50' W 076°16'0 0.0
2018-Aug-13 00:00N 36°50' W 076°16'0 0.0
2018-Aug-12 23:30N 36°50' W 076°16'0 0.0
2018-Aug-12 22:59N 36°50' W 076°16'0 0.0
2018-Aug-12 22:30N 36°50' W 076°16'0 0.0
2018-Aug-12 22:00N 36°50' W 076°16'0 0.0
2018-Aug-12 21:30N 36°50' W 076°16'0 0.0
2018-Aug-12 21:00N 36°50' W 076°16'0 0.0
2018-Aug-12 20:30N 36°50' W 076°16'0 0.0
2018-Aug-12 20:00N 36°50' W 076°16'0 0.0
2018-Aug-12 19:30N 36°50' W 076°16'0 0.0
2018-Aug-12 19:00N 36°50' W 076°16'0 0.0
2018-Aug-12 18:30N 36°50' W 076°16'0 0.0
2018-Aug-12 18:00N 36°50' W 076°16'0 0.0
2018-Aug-12 17:30N 36°50' W 076°16'0 0.0
2018-Aug-12 17:00N 36°50' W 076°16'0 0.0
2018-Aug-12 16:31N 36°50' W 076°16'0 0.0
2018-Aug-12 16:00N 36°50' W 076°16'0 0.0
2018-Aug-12 15:30N 36°50' W 076°16'0 0.0
2018-Aug-12 15:00N 36°50' W 076°16'0 0.0
2018-Aug-12 14:30N 36°50' W 076°16'0 0.0
2018-Aug-12 14:00N 36°50' W 076°16'0 0.0
2018-Aug-12 13:30N 36°50' W 076°16'0 0.0
2018-Aug-12 13:00N 36°50' W 076°16'0 0.0
2018-Aug-12 12:30N 36°50' W 076°16'0 0.0
2018-Aug-12 12:00N 36°50' W 076°16'0 0.0
2018-Aug-12 11:29N 36°50' W 076°16'0 0.0
2018-Aug-12 11:01N 36°50' W 076°16'0 0.0
2018-Aug-12 10:29N 36°50' W 076°16'0 0.0
2018-Aug-12 10:00N 36°50' W 076°16'0 0.0
2018-Aug-12 09:31N 36°50' W 076°16'0 0.0
2018-Aug-12 09:00N 36°50' W 076°16'0 0.0
2018-Aug-12 08:30N 36°50' W 076°16'0 0.0
2018-Aug-12 08:00N 36°50' W 076°16'0 0.0
2018-Aug-12 07:30N 36°50' W 076°16'0 0.0
2018-Aug-12 07:00N 36°50' W 076°16'3 5.5
2018-Aug-12 06:30N 36°52' W 076°19'3 0.2
2018-Aug-11 13:27N 36°55' W 076°20'3 7.4
2018-Aug-11 13:00N 36°52' W 076°19'3 5.1
2018-Aug-11 12:30N 36°50' W 076°16'0 0.0
2018-Aug-11 12:00N 36°50' W 076°16'0 0.0
2018-Aug-11 11:30N 36°50' W 076°16'0 0.0
2018-Aug-11 11:00N 36°50' W 076°16'0 0.2
2018-Aug-11 10:30N 36°50' W 076°16'1 2.4
2018-Aug-11 10:00N 36°50' W 076°18'3 6.6
2018-Aug-11 09:30N 36°47' W 076°18'1 1.8
2018-Aug-11 09:00N 36°46' W 076°18'0 0.5
2018-Aug-11 08:30N 36°46' W 076°18'1 1.5
2018-Aug-11 08:00N 36°47' W 076°18'2 4.7
2018-Aug-11 07:30N 36°49' W 076°17'3 5.7
2018-Aug-11 06:59N 36°52' W 076°19'2 0.1
2018-Aug-09 21:24N 36°53' W 076°20'3 6.7
2018-Aug-09 21:00N 36°51' W 076°18'3 6.2
2018-Aug-09 20:30N 36°48' W 076°17'2 3.8
2018-Aug-09 20:00N 36°46' W 076°18'0 0.5
2018-Aug-09 19:30N 36°46' W 076°18'0 0.0
2018-Aug-09 19:00N 36°46' W 076°18'0 0.0
2018-Aug-09 18:30N 36°46' W 076°18'0 0.9
2018-Aug-09 18:01N 36°46' W 076°18'3 6.2
2018-Aug-09 17:30N 36°50' W 076°18'1 2.4
2018-Aug-09 17:00N 36°50' W 076°16'0 0.2
2018-Aug-09 16:29N 36°50' W 076°16'2 4.4
2018-Aug-09 16:00N 36°51' W 076°19'2 3.2
2018-Aug-09 15:30N 36°50' W 076°18'0 0.0
2018-Aug-09 15:00N 36°50' W 076°18'0 0.1
2018-Aug-09 14:28N 36°50' W 076°17'0 1.0
2018-Aug-09 14:00N 36°50' W 076°18'1 2.4
2018-Aug-09 13:29N 36°51' W 076°19'2 4.3
2018-Aug-09 13:00N 36°49' W 076°17'3 5.8
2018-Aug-09 12:30N 36°46' W 076°18'0 0.8
2018-Aug-09 12:00N 36°46' W 076°18'0 0.0
2018-Aug-09 11:30N 36°46' W 076°18'0 0.0
2018-Aug-09 11:00N 36°46' W 076°18'0 0.0
2018-Aug-09 10:30N 36°46' W 076°18'0 0.0
2018-Aug-09 10:00N 36°46' W 076°18'0 0.0
2018-Aug-09 09:30N 36°46' W 076°18'0 0.0
2018-Aug-09 09:00N 36°46' W 076°18'0 0.2
2018-Aug-09 08:30N 36°46' W 076°18'1 1.4
2018-Aug-09 08:00N 36°47' W 076°18'1 2.1
2018-Aug-09 07:30N 36°48' W 076°18'3 5.3
2018-Aug-09 07:00N 36°50' W 076°18'3 6.4
2018-Aug-09 06:28N 36°53' W 076°20'1 0.0
2018-Aug-07 20:23N 36°54' W 076°20'3 6.6
2018-Aug-07 20:00N 36°52' W 076°19'3 6.4
2018-Aug-07 19:30N 36°48' W 076°17'2 4.2
2018-Aug-07 19:00N 36°46' W 076°18'0 0.8
2018-Aug-07 18:30N 36°46' W 076°18'2 4.6
2018-Aug-07 18:00N 36°48' W 076°17'2 4.3
2018-Aug-07 17:30N 36°50' W 076°16'0 0.0
2018-Aug-07 17:00N 36°50' W 076°16'0 0.0
2018-Aug-07 16:30N 36°50' W 076°16'0 0.0
2018-Aug-07 16:00N 36°50' W 076°16'0 0.0
2018-Aug-07 15:30N 36°50' W 076°16'0 0.0
2018-Aug-07 14:59N 36°50' W 076°16'0 0.0
2018-Aug-07 14:30N 36°50' W 076°16'0 0.0
2018-Aug-07 13:58N 36°50' W 076°16'0 0.0
2018-Aug-07 13:30N 36°50' W 076°16'0 0.0
2018-Aug-07 13:00N 36°50' W 076°16'0 0.0
2018-Aug-07 12:30N 36°50' W 076°16'0 0.0
2018-Aug-07 12:00N 36°50' W 076°16'0 0.0
2018-Aug-07 11:30N 36°50' W 076°16'0 0.0
2018-Aug-07 11:00N 36°50' W 076°16'0 0.0
2018-Aug-07 10:30N 36°50' W 076°16'0 0.0
2018-Aug-07 10:00N 36°50' W 076°16'0 0.0
2018-Aug-07 09:30N 36°50' W 076°16'0 0.0
2018-Aug-07 09:00N 36°50' W 076°16'0 0.0
2018-Aug-07 08:30N 36°50' W 076°16'0 0.0
2018-Aug-07 08:00N 36°50' W 076°16'0 0.0
2018-Aug-07 07:30N 36°50' W 076°16'0 0.0
2018-Aug-07 07:00N 36°50' W 076°16'0 0.0
2018-Aug-07 06:30N 36°50' W 076°16'0 0.0
2018-Aug-07 06:00N 36°50' W 076°16'0 0.0
2018-Aug-07 05:30N 36°50' W 076°16'0 0.0
2018-Aug-07 05:00N 36°50' W 076°16'0 0.0
2018-Aug-07 04:30N 36°50' W 076°16'1 1.9
2018-Aug-07 04:01N 36°51' W 076°17'1 3.0
2018-Aug-07 03:30N 36°49' W 076°17'0 0.0
2018-Aug-07 03:00N 36°49' W 076°17'0 0.0
2018-Aug-07 02:30N 36°49' W 076°17'0 0.0
2018-Aug-07 02:00N 36°49' W 076°17'0 0.0
2018-Aug-07 01:30N 36°49' W 076°17'0 0.0
2018-Aug-07 01:00N 36°49' W 076°17'0 0.0
2018-Aug-07 00:30N 36°49' W 076°17'0 0.0
2018-Aug-07 00:00N 36°49' W 076°17'0 0.0
2018-Aug-06 23:30N 36°49' W 076°17'0 0.0
2018-Aug-06 23:00N 36°49' W 076°17'0 0.0
2018-Aug-06 22:30N 36°49' W 076°17'0 0.0
2018-Aug-06 22:00N 36°49' W 076°17'0 0.0
2018-Aug-06 21:30N 36°49' W 076°17'0 0.0
2018-Aug-06 21:00N 36°49' W 076°17'0 0.0
2018-Aug-06 20:30N 36°49' W 076°17'0 0.0
2018-Aug-06 20:00N 36°49' W 076°17'0 0.0
2018-Aug-06 19:30N 36°49' W 076°17'0 0.0
2018-Aug-06 19:00N 36°49' W 076°17'0 0.0
2018-Aug-06 18:30N 36°49' W 076°17'0 0.0
2018-Aug-06 18:00N 36°49' W 076°17'0 0.0
2018-Aug-06 17:30N 36°49' W 076°17'0 0.0
2018-Aug-06 17:00N 36°49' W 076°17'0 0.0
2018-Aug-06 16:30N 36°49' W 076°17'0 0.0
2018-Aug-06 16:00N 36°49' W 076°17'0 0.0
2018-Aug-06 15:30N 36°49' W 076°17'0 0.0
2018-Aug-06 15:00N 36°49' W 076°17'0 0.0
2018-Aug-06 14:30N 36°49' W 076°17'0 0.0
2018-Aug-06 14:00N 36°49' W 076°17'0 0.0
2018-Aug-06 13:30N 36°49' W 076°17'0 0.0
2018-Aug-06 13:00N 36°49' W 076°17'0 0.0
2018-Aug-06 12:30N 36°49' W 076°17'0 0.0
2018-Aug-06 12:00N 36°49' W 076°17'0 0.0
2018-Aug-06 11:30N 36°49' W 076°17'0 0.0
2018-Aug-06 11:00N 36°49' W 076°17'0 0.0
2018-Aug-06 10:30N 36°49' W 076°17'1 1.8
2018-Aug-06 10:00N 36°48' W 076°17'3 5.5
2018-Aug-06 09:31N 36°45' W 076°18'1 1.3
2018-Aug-06 09:00N 36°45' W 076°18'0 0.1
2018-Aug-06 08:30N 36°45' W 076°18'2 3.2
2018-Aug-06 08:00N 36°46' W 076°18'1 2.2
2018-Aug-06 07:30N 36°47' W 076°18'3 6.2
2018-Aug-06 07:00N 36°50' W 076°18'4 1.0
2018-Aug-06 02:54N 36°54' W 076°20'3 7.6
2018-Aug-06 02:30N 36°51' W 076°18'2 4.0
2018-Aug-06 02:00N 36°50' W 076°16'0 0.0
2018-Aug-06 01:29N 36°50' W 076°16'0 0.0
2018-Aug-06 01:00N 36°50' W 076°16'0 0.0
2018-Aug-06 00:30N 36°50' W 076°16'0 0.0
2018-Aug-06 00:00N 36°50' W 076°16'0 0.0
2018-Aug-05 23:30N 36°50' W 076°16'  
Track history (hours):
 
Tides and Currents Weather Stations Pressure Air Temp Water Temp Dewpoint Dewpoint Depression Visibility Wind Speed Wind Dir Waves Ship Positions

Crosby Wave

Owner: Crosby Marine Transportation, LLC, Galliano, LA. More information available from US FCC via Universal Licensing System and Coast Guard Vessel Documentation Center.

Last reported at 2018-Aug-15 23:06 UTC. Time now 2018-Aug-16 08:44 UTC.
Position N 36°55' W 076°20'.

; draft 3.8 m.

Type: Towing. MMSI: 367126540.

Date/timePositionNaut miles runAvg speedWind from/ knotsBaromVisibWave heightAir tempDewpointWater temp
2018-Aug-15 23:06N 36°55' W 076°20'1 8.9
2018-Aug-15 22:58N 36°53' W 076°20'4 7.8
2018-Aug-15 22:30N 36°50' W 076°18'3 6.7
2018-Aug-15 22:00N 36°47' W 076°18'1 2.3
2018-Aug-15 21:30N 36°46' W 076°18'0 0.0
2018-Aug-15 21:00N 36°46' W 076°18'0 0.0
2018-Aug-15 20:30N 36°46' W 076°18'1 1.2
2018-Aug-15 20:00N 36°47' W 076°18'2 4.6
2018-Aug-15 19:30N 36°49' W 076°17'2 3.3
2018-Aug-15 19:00N 36°50' W 076°16'0 0.0
2018-Aug-15 18:30N 36°50' W 076°16'0 0.0
2018-Aug-15 18:00N 36°50' W 076°16'0 0.0
2018-Aug-15 17:30N 36°50' W 076°16'0 0.0
2018-Aug-15 17:00N 36°50' W 076°16'0 0.0
2018-Aug-15 16:30N 36°50' W 076°16'0 0.0
2018-Aug-15 16:00N 36°50' W 076°16'0 0.0
2018-Aug-15 15:30N 36°50' W 076°16'0 0.0
2018-Aug-15 15:00N 36°50' W 076°16'0 0.0
2018-Aug-15 14:30N 36°50' W 076°16'0 0.0
2018-Aug-15 14:00N 36°50' W 076°16'0 0.0
2018-Aug-15 13:30N 36°50' W 076°16'0 0.0
2018-Aug-15 13:00N 36°50' W 076°16'0 0.0
2018-Aug-15 12:30N 36°50' W 076°16'0 0.0
2018-Aug-15 12:00N 36°50' W 076°16'0 0.1
2018-Aug-15 11:30N 36°50' W 076°16'0 0.1
2018-Aug-15 11:00N 36°50' W 076°16'0 0.0
2018-Aug-15 10:31N 36°50' W 076°16'0 0.0
2018-Aug-15 10:00N 36°50' W 076°16'0 0.0
2018-Aug-15 09:30N 36°50' W 076°16'0 0.0
2018-Aug-15 09:00N 36°50' W 076°16'0 0.0
2018-Aug-15 08:30N 36°50' W 076°16'0 0.0
2018-Aug-15 08:00N 36°50' W 076°16'0 0.0
2018-Aug-15 07:31N 36°50' W 076°16'0 0.0
2018-Aug-15 07:00N 36°50' W 076°16'0 0.0
2018-Aug-15 06:30N 36°50' W 076°16'0 0.0
2018-Aug-15 06:00N 36°50' W 076°16'0 0.0
2018-Aug-15 05:31N 36°50' W 076°16'0 0.0
2018-Aug-15 05:00N 36°50' W 076°16'0 0.0
2018-Aug-15 04:30N 36°50' W 076°16'0 0.0
2018-Aug-15 04:00N 36°50' W 076°16'0 0.0
2018-Aug-15 03:31N 36°50' W 076°16'0 0.0
2018-Aug-15 03:00N 36°50' W 076°16'0 0.0
2018-Aug-15 02:30N 36°50' W 076°16'0 0.0
2018-Aug-15 02:00N 36°50' W 076°16'0 0.0
2018-Aug-15 01:30N 36°50' W 076°16'0 0.0
2018-Aug-15 01:00N 36°50' W 076°16'0 0.0
2018-Aug-15 00:30N 36°50' W 076°16'0 0.0
2018-Aug-15 00:00N 36°50' W 076°16'0 0.0
2018-Aug-14 23:30N 36°50' W 076°16'0 0.0
2018-Aug-14 23:00N 36°50' W 076°16'0 0.0
2018-Aug-14 22:31N 36°50' W 076°16'0 0.0
2018-Aug-14 22:00N 36°50' W 076°16'0 0.0
2018-Aug-14 21:31N 36°50' W 076°16'0 0.0
2018-Aug-14 21:00N 36°50' W 076°16'0 0.0
2018-Aug-14 20:30N 36°50' W 076°16'0 0.0
2018-Aug-14 20:00N 36°50' W 076°16'0 0.0
2018-Aug-14 19:30N 36°50' W 076°16'0 0.0
2018-Aug-14 19:00N 36°50' W 076°16'0 0.0
2018-Aug-14 18:30N 36°50' W 076°16'0 0.0
2018-Aug-14 17:59N 36°50' W 076°16'0 0.0
2018-Aug-14 17:30N 36°50' W 076°16'0 0.0
2018-Aug-14 17:00N 36°50' W 076°16'0 0.0
2018-Aug-14 16:30N 36°50' W 076°16'0 0.0
2018-Aug-14 16:00N 36°50' W 076°16'0 0.0
2018-Aug-14 15:30N 36°50' W 076°16'0 0.0
2018-Aug-14 15:00N 36°50' W 076°16'0 0.0
2018-Aug-14 14:31N 36°50' W 076°16'0 0.0
2018-Aug-14 14:00N 36°50' W 076°16'0 0.0
2018-Aug-14 13:30N 36°50' W 076°16'0 0.0
2018-Aug-14 13:00N 36°50' W 076°16'0 0.0
2018-Aug-14 12:30N 36°50' W 076°16'0 0.0
2018-Aug-14 12:00N 36°50' W 076°16'0 0.0
2018-Aug-14 11:30N 36°50' W 076°16'0 0.0
2018-Aug-14 11:00N 36°50' W 076°16'0 0.0
2018-Aug-14 10:30N 36°50' W 076°16'0 0.0
2018-Aug-14 10:00N 36°50' W 076°16'0 0.0
2018-Aug-14 09:30N 36°50' W 076°16'0 0.0
2018-Aug-14 09:00N 36°50' W 076°16'0 0.0
2018-Aug-14 08:30N 36°50' W 076°16'0 0.0
2018-Aug-14 08:00N 36°50' W 076°16'0 0.0
2018-Aug-14 07:30N 36°50' W 076°16'0 0.0
2018-Aug-14 07:00N 36°50' W 076°16'0 0.0
2018-Aug-14 06:30N 36°50' W 076°16'0 0.0
2018-Aug-14 05:59N 36°50' W 076°16'0 0.0
2018-Aug-14 05:30N 36°50' W 076°16'0 0.0
2018-Aug-14 05:00N 36°50' W 076°16'0 0.0
2018-Aug-14 04:30N 36°50' W 076°16'0 0.0
2018-Aug-14 04:00N 36°50' W 076°16'0 0.0
2018-Aug-14 03:30N 36°50' W 076°16'0 0.0
2018-Aug-14 03:00N 36°50' W 076°16'0 0.0
2018-Aug-14 02:30N 36°50' W 076°16'0 0.0
2018-Aug-14 02:00N 36°50' W 076°16'0 0.0
2018-Aug-14 01:31N 36°50' W 076°16'0 0.0
2018-Aug-14 01:00N 36°50' W 076°16'0 0.0
2018-Aug-14 00:30N 36°50' W 076°16'0 0.0
2018-Aug-14 00:00N 36°50' W 076°16'0 0.0
2018-Aug-13 23:30N 36°50' W 076°16'0 0.0
2018-Aug-13 23:00N 36°50' W 076°16'0 0.0
2018-Aug-13 22:30N 36°50' W 076°16'0 0.0
2018-Aug-13 22:00N 36°50' W 076°16'0 0.0
2018-Aug-13 21:30N 36°50' W 076°16'0 0.0
2018-Aug-13 21:00N 36°50' W 076°16'0 0.0
2018-Aug-13 20:30N 36°50' W 076°16'0 0.0
2018-Aug-13 20:00N 36°50' W 076°16'0 0.0
2018-Aug-13 19:30N 36°50' W 076°16'0 0.0
2018-Aug-13 19:00N 36°50' W 076°16'0 0.0
2018-Aug-13 18:30N 36°50' W 076°16'0 0.0
2018-Aug-13 18:00N 36°50' W 076°16'0 0.0
2018-Aug-13 17:30N 36°50' W 076°16'0 0.0
2018-Aug-13 17:00N 36°50' W 076°16'0 0.0
2018-Aug-13 16:30N 36°50' W 076°16'0 0.0
2018-Aug-13 16:00N 36°50' W 076°16'0 0.0
2018-Aug-13 15:30N 36°50' W 076°16'0 0.0
2018-Aug-13 15:01N 36°50' W 076°16'0 0.0
2018-Aug-13 14:30N 36°50' W 076°16'0 0.0
2018-Aug-13 14:00N 36°50' W 076°16'0 0.0
2018-Aug-13 13:30N 36°50' W 076°16'0 0.0
2018-Aug-13 13:00N 36°50' W 076°16'0 0.0
2018-Aug-13 12:30N 36°50' W 076°16'0 0.0
2018-Aug-13 12:00N 36°50' W 076°16'0 0.0
2018-Aug-13 11:30N 36°50' W 076°16'0 0.0
2018-Aug-13 11:00N 36°50' W 076°16'0 0.0
2018-Aug-13 10:30N 36°50' W 076°16'0 0.0
2018-Aug-13 10:00N 36°50' W 076°16'0 0.0
2018-Aug-13 09:30N 36°50' W 076°16'0 0.0
2018-Aug-13 09:00N 36°50' W 076°16'0 0.0
2018-Aug-13 08:31N 36°50' W 076°16'0 0.0
2018-Aug-13 08:00N 36°50' W 076°16'0 0.0
2018-Aug-13 07:30N 36°50' W 076°16'0 0.0
2018-Aug-13 07:00N 36°50' W 076°16'0 0.0
2018-Aug-13 06:31N 36°50' W 076°16'0 0.0
2018-Aug-13 06:00N 36°50' W 076°16'0 0.0
2018-Aug-13 05:30N 36°50' W 076°16'0 0.0
2018-Aug-13 05:00N 36°50' W 076°16'0 0.0
2018-Aug-13 04:30N 36°50' W 076°16'0 0.0
2018-Aug-13 04:00N 36°50' W 076°16'0 0.0
2018-Aug-13 03:30N 36°50' W 076°16'0 0.0
2018-Aug-13 03:00N 36°50' W 076°16'0 0.0
2018-Aug-13 02:30N 36°50' W 076°16'0 0.0
2018-Aug-13 02:00N 36°50' W 076°16'0 0.0
2018-Aug-13 01:31N 36°50' W 076°16'0 0.0
2018-Aug-13 01:00N 36°50' W 076°16'0 0.0
2018-Aug-13 00:30N 36°50' W 076°16'0 0.0
2018-Aug-13 00:00N 36°50' W 076°16'0 0.0
2018-Aug-12 23:30N 36°50' W 076°16'0 0.0
2018-Aug-12 22:59N 36°50' W 076°16'0 0.0
2018-Aug-12 22:30N 36°50' W 076°16'0 0.0
2018-Aug-12 22:00N 36°50' W 076°16'0 0.0
2018-Aug-12 21:30N 36°50' W 076°16'0 0.0
2018-Aug-12 21:00N 36°50' W 076°16'0 0.0
2018-Aug-12 20:30N 36°50' W 076°16'0 0.0
2018-Aug-12 20:00N 36°50' W 076°16'0 0.0
2018-Aug-12 19:30N 36°50' W 076°16'0 0.0
2018-Aug-12 19:00N 36°50' W 076°16'0 0.0
2018-Aug-12 18:30N 36°50' W 076°16'0 0.0
2018-Aug-12 18:00N 36°50' W 076°16'0 0.0
2018-Aug-12 17:30N 36°50' W 076°16'0 0.0
2018-Aug-12 17:00N 36°50' W 076°16'0 0.0
2018-Aug-12 16:31N 36°50' W 076°16'0 0.0
2018-Aug-12 16:00N 36°50' W 076°16'0 0.0
2018-Aug-12 15:30N 36°50' W 076°16'0 0.0
2018-Aug-12 15:00N 36°50' W 076°16'0 0.0
2018-Aug-12 14:30N 36°50' W 076°16'0 0.0
2018-Aug-12 14:00N 36°50' W 076°16'0 0.0
2018-Aug-12 13:30N 36°50' W 076°16'0 0.0
2018-Aug-12 13:00N 36°50' W 076°16'0 0.0
2018-Aug-12 12:30N 36°50' W 076°16'0 0.0
2018-Aug-12 12:00N 36°50' W 076°16'0 0.0
2018-Aug-12 11:29N 36°50' W 076°16'0 0.0
2018-Aug-12 11:01N 36°50' W 076°16'0 0.0
2018-Aug-12 10:29N 36°50' W 076°16'0 0.0
2018-Aug-12 10:00N 36°50' W 076°16'0 0.0
2018-Aug-12 09:31N 36°50' W 076°16'0 0.0
2018-Aug-12 09:00N 36°50' W 076°16'0 0.0
2018-Aug-12 08:30N 36°50' W 076°16'0 0.0
2018-Aug-12 08:00N 36°50' W 076°16'0 0.0
2018-Aug-12 07:30N 36°50' W 076°16'0 0.0
2018-Aug-12 07:00N 36°50' W 076°16'3 5.5
2018-Aug-12 06:30N 36°52' W 076°19'3 0.2
2018-Aug-11 13:27N 36°55' W 076°20'3 7.4
2018-Aug-11 13:00N 36°52' W 076°19'3 5.1
2018-Aug-11 12:30N 36°50' W 076°16'0 0.0
2018-Aug-11 12:00N 36°50' W 076°16'0 0.0
2018-Aug-11 11:30N 36°50' W 076°16'0 0.0
2018-Aug-11 11:00N 36°50' W 076°16'0 0.2
2018-Aug-11 10:30N 36°50' W 076°16'1 2.4
2018-Aug-11 10:00N 36°50' W 076°18'3 6.6
2018-Aug-11 09:30N 36°47' W 076°18'1 1.8
2018-Aug-11 09:00N 36°46' W 076°18'0 0.5
2018-Aug-11 08:30N 36°46' W 076°18'1 1.5
2018-Aug-11 08:00N 36°47' W 076°18'2 4.7
2018-Aug-11 07:30N 36°49' W 076°17'3 5.7
2018-Aug-11 06:59N 36°52' W 076°19'2 0.1
2018-Aug-09 21:24N 36°53' W 076°20'3 6.7
2018-Aug-09 21:00N 36°51' W 076°18'3 6.2
2018-Aug-09 20:30N 36°48' W 076°17'2 3.8
2018-Aug-09 20:00N 36°46' W 076°18'0 0.5
2018-Aug-09 19:30N 36°46' W 076°18'0 0.0
2018-Aug-09 19:00N 36°46' W 076°18'0 0.0
2018-Aug-09 18:30N 36°46' W 076°18'0 0.9
2018-Aug-09 18:01N 36°46' W 076°18'3 6.2
2018-Aug-09 17:30N 36°50' W 076°18'1 2.4
2018-Aug-09 17:00N 36°50' W 076°16'0 0.2
2018-Aug-09 16:29N 36°50' W 076°16'2 4.4
2018-Aug-09 16:00N 36°51' W 076°19'2 3.2
2018-Aug-09 15:30N 36°50' W 076°18'0 0.0
2018-Aug-09 15:00N 36°50' W 076°18'0 0.1
2018-Aug-09 14:28N 36°50' W 076°17'0 1.0
2018-Aug-09 14:00N 36°50' W 076°18'1 2.4
2018-Aug-09 13:29N 36°51' W 076°19'2 4.3
2018-Aug-09 13:00N 36°49' W 076°17'3 5.8
2018-Aug-09 12:30N 36°46' W 076°18'0 0.8
2018-Aug-09 12:00N 36°46' W 076°18'0 0.0
2018-Aug-09 11:30N 36°46' W 076°18'0 0.0
2018-Aug-09 11:00N 36°46' W 076°18'0 0.0
2018-Aug-09 10:30N 36°46' W 076°18'0 0.0
2018-Aug-09 10:00N 36°46' W 076°18'0 0.0
2018-Aug-09 09:30N 36°46' W 076°18'0 0.0
2018-Aug-09 09:00N 36°46' W 076°18'0 0.2
2018-Aug-09 08:30N 36°46' W 076°18'1 1.4
2018-Aug-09 08:00N 36°47' W 076°18'1 2.1
2018-Aug-09 07:30N 36°48' W 076°18'3 5.3
2018-Aug-09 07:00N 36°50' W 076°18'3 6.4
2018-Aug-09 06:28N 36°53' W 076°20'1 0.0
2018-Aug-07 20:23N 36°54' W 076°20'3 6.6
2018-Aug-07 20:00N 36°52' W 076°19'3 6.4
2018-Aug-07 19:30N 36°48' W 076°17'2 4.2
2018-Aug-07 19:00N 36°46' W 076°18'0 0.8
2018-Aug-07 18:30N 36°46' W 076°18'2 4.6
2018-Aug-07 18:00N 36°48' W 076°17'2 4.3
2018-Aug-07 17:30N 36°50' W 076°16'0 0.0
2018-Aug-07 17:00N 36°50' W 076°16'0 0.0
2018-Aug-07 16:30N 36°50' W 076°16'0 0.0
2018-Aug-07 16:00N 36°50' W 076°16'0 0.0
2018-Aug-07 15:30N 36°50' W 076°16'0 0.0
2018-Aug-07 14:59N 36°50' W 076°16'0 0.0
2018-Aug-07 14:30N 36°50' W 076°16'0 0.0
2018-Aug-07 13:58N 36°50' W 076°16'0 0.0
2018-Aug-07 13:30N 36°50' W 076°16'0 0.0
2018-Aug-07 13:00N 36°50' W 076°16'0 0.0
2018-Aug-07 12:30N 36°50' W 076°16'0 0.0
2018-Aug-07 12:00N 36°50' W 076°16'0 0.0
2018-Aug-07 11:30N 36°50' W 076°16'0 0.0
2018-Aug-07 11:00N 36°50' W 076°16'0 0.0
2018-Aug-07 10:30N 36°50' W 076°16'0 0.0
2018-Aug-07 10:00N 36°50' W 076°16'0 0.0
2018-Aug-07 09:30N 36°50' W 076°16'0 0.0
2018-Aug-07 09:00N 36°50' W 076°16'0 0.0
2018-Aug-07 08:30N 36°50' W 076°16'0 0.0
2018-Aug-07 08:00N 36°50' W 076°16'0 0.0
2018-Aug-07 07:30N 36°50' W 076°16'0 0.0
2018-Aug-07 07:00N 36°50' W 076°16'0 0.0
2018-Aug-07 06:30N 36°50' W 076°16'0 0.0
2018-Aug-07 06:00N 36°50' W 076°16'0 0.0
2018-Aug-07 05:30N 36°50' W 076°16'0 0.0
2018-Aug-07 05:00N 36°50' W 076°16'0 0.0
2018-Aug-07 04:30N 36°50' W 076°16'1 1.9
2018-Aug-07 04:01N 36°51' W 076°17'1 3.0
2018-Aug-07 03:30N 36°49' W 076°17'0 0.0
2018-Aug-07 03:00N 36°49' W 076°17'0 0.0
2018-Aug-07 02:30N 36°49' W 076°17'0 0.0
2018-Aug-07 02:00N 36°49' W 076°17'0 0.0
2018-Aug-07 01:30N 36°49' W 076°17'0 0.0
2018-Aug-07 01:00N 36°49' W 076°17'0 0.0
2018-Aug-07 00:30N 36°49' W 076°17'0 0.0
2018-Aug-07 00:00N 36°49' W 076°17'0 0.0
2018-Aug-06 23:30N 36°49' W 076°17'0 0.0
2018-Aug-06 23:00N 36°49' W 076°17'0 0.0
2018-Aug-06 22:30N 36°49' W 076°17'0 0.0
2018-Aug-06 22:00N 36°49' W 076°17'0 0.0
2018-Aug-06 21:30N 36°49' W 076°17'0 0.0
2018-Aug-06 21:00N 36°49' W 076°17'0 0.0
2018-Aug-06 20:30N 36°49' W 076°17'0 0.0
2018-Aug-06 20:00N 36°49' W 076°17'0 0.0
2018-Aug-06 19:30N 36°49' W 076°17'0 0.0
2018-Aug-06 19:00N 36°49' W 076°17'0 0.0
2018-Aug-06 18:30N 36°49' W 076°17'0 0.0
2018-Aug-06 18:00N 36°49' W 076°17'0 0.0
2018-Aug-06 17:30N 36°49' W 076°17'0 0.0
2018-Aug-06 17:00N 36°49' W 076°17'0 0.0
2018-Aug-06 16:30N 36°49' W 076°17'0 0.0
2018-Aug-06 16:00N 36°49' W 076°17'0 0.0
2018-Aug-06 15:30N 36°49' W 076°17'0 0.0
2018-Aug-06 15:00N 36°49' W 076°17'0 0.0
2018-Aug-06 14:30N 36°49' W 076°17'0 0.0
2018-Aug-06 14:00N 36°49' W 076°17'0 0.0
2018-Aug-06 13:30N 36°49' W 076°17'0 0.0
2018-Aug-06 13:00N 36°49' W 076°17'0 0.0
2018-Aug-06 12:30N 36°49' W 076°17'0 0.0
2018-Aug-06 12:00N 36°49' W 076°17'0 0.0
2018-Aug-06 11:30N 36°49' W 076°17'0 0.0
2018-Aug-06 11:00N 36°49' W 076°17'0 0.0
2018-Aug-06 10:30N 36°49' W 076°17'1 1.8
2018-Aug-06 10:00N 36°48' W 076°17'3 5.5
2018-Aug-06 09:31N 36°45' W 076°18'1 1.3
2018-Aug-06 09:00N 36°45' W 076°18'0 0.1
2018-Aug-06 08:30N 36°45' W 076°18'2 3.2
2018-Aug-06 08:00N 36°46' W 076°18'1 2.2
2018-Aug-06 07:30N 36°47' W 076°18'3 6.2
2018-Aug-06 07:00N 36°50' W 076°18'4 1.0
2018-Aug-06 02:54N 36°54' W 076°20'3 7.6
2018-Aug-06 02:30N 36°51' W 076°18'2 4.0
2018-Aug-06 02:00N 36°50' W 076°16'0 0.0
2018-Aug-06 01:29N 36°50' W 076°16'0 0.0
2018-Aug-06 01:00N 36°50' W 076°16'0 0.0
2018-Aug-06 00:30N 36°50' W 076°16'0 0.0
2018-Aug-06 00:00N 36°50' W 076°16'0 0.0
2018-Aug-05 23:30N 36°50' W 076°16'  

Dump ship's entire track history